Time;durP1;ratioP1;P1;durP2;ratioP2;P2;SDS_P1;SDS_P2;PMS_P1;PMS_P2;Temp;Humidity;BMP_temperature;BMP_pressure;BME280_temperature;BME280_humidity;BME280_pressure;Samples;Min_cycle;Max_cycle;Signal;HPM_P1;HPM_P2
2022/03/09 00:00:47;;;;;;;17.45;6.85;;;2.80;96.50;;;;;;5130410;28;20078;-73
2022/03/09 00:03:13;;;;;;;19.15;5.70;;;2.70;96.50;;;;;;5113483;28;20091;-74
2022/03/09 00:05:38;;;;;;;18.35;6.30;;;2.60;96.80;;;;;;5082862;28;20078;-73
2022/03/09 00:08:04;;;;;;;21.30;6.47;;;2.60;97.20;;;;;;5090618;28;20047;-73
2022/03/09 00:10:30;;;;;;;15.20;5.93;;;2.60;97.00;;;;;;5089247;28;20090;-74
2022/03/09 00:12:56;;;;;;;19.17;6.15;;;2.50;97.40;;;;;;5096075;28;20054;-73
2022/03/09 00:15:22;;;;;;;18.98;5.85;;;2.40;97.60;;;;;;5129632;28;20375;-73
2022/03/09 00:17:48;;;;;;;18.90;6.90;;;2.40;98.20;;;;;;5131013;28;20051;-73
2022/03/09 00:20:14;;;;;;;16.93;6.07;;;2.30;97.90;;;;;;5128138;28;20050;-74
2022/03/09 00:22:40;;;;;;;19.48;7.15;;;2.20;97.80;;;;;;5110072;28;20148;-74
2022/03/09 00:25:06;;;;;;;17.50;6.43;;;2.10;97.70;;;;;;5076736;28;20055;-74
2022/03/09 00:27:32;;;;;;;19.35;7.15;;;2.00;97.90;;;;;;5089099;28;20055;-74
2022/03/09 00:29:58;;;;;;;23.83;7.82;;;1.90;98.20;;;;;;5106836;28;20130;-74
2022/03/09 00:32:24;;;;;;;20.02;7.30;;;1.80;98.60;;;;;;5094050;28;20044;-73
2022/03/09 00:34:53;;;;;;;21.90;7.97;;;1.70;98.90;;;;;;5113845;28;20096;-75
2022/03/09 00:37:18;;;;;;;20.27;7.97;;;1.70;99.40;;;;;;5096183;28;20475;-73
2022/03/09 00:39:44;;;;;;;22.88;8.48;;;1.60;99.80;;;;;;5113950;28;20050;-74
2022/03/09 00:42:10;;;;;;;23.48;8.15;;;1.60;99.90;;;;;;5077349;28;20107;-74
2022/03/09 00:44:36;;;;;;;22.40;8.23;;;1.50;99.90;;;;;;5113924;28;20052;-75
2022/03/09 00:47:02;;;;;;;22.65;7.25;;;1.40;99.90;;;;;;5096585;28;20051;-75
2022/03/09 00:49:28;;;;;;;23.27;7.50;;;1.40;99.90;;;;;;5132249;27;20051;-73
2022/03/09 00:51:53;;;;;;;17.13;6.70;;;1.30;99.90;;;;;;5114854;27;20056;-73
2022/03/09 00:54:19;;;;;;;21.95;7.97;;;1.20;99.90;;;;;;5112798;28;20484;-73
2022/03/09 00:56:45;;;;;;;23.60;7.40;;;1.20;99.90;;;;;;5111660;28;20083;-74
2022/03/09 00:59:11;;;;;;;18.55;6.70;;;1.10;99.90;;;;;;5113114;28;20495;-73
2022/03/09 01:01:36;;;;;;;19.80;7.22;;;1.10;99.90;;;;;;5096069;28;20043;-74
2022/03/09 01:04:03;;;;;;;18.90;7.00;;;1.10;99.90;;;;;;5113508;28;20046;-74
2022/03/09 01:06:29;;;;;;;20.40;7.32;;;1.00;99.90;;;;;;5095596;28;20200;-74
2022/03/09 01:08:57;;;;;;;29.20;7.78;;;1.00;99.90;;;;;;5114558;27;20554;-74
2022/03/09 01:11:23;;;;;;;21.60;7.22;;;1.00;99.90;;;;;;5091550;28;20060;-73
2022/03/09 01:13:49;;;;;;;22.83;6.93;;;1.00;99.90;;;;;;5094099;28;20135;-73
2022/03/09 01:16:14;;;;;;;21.50;7.65;;;0.90;99.90;;;;;;5091547;28;20082;-74
2022/03/09 01:18:40;;;;;;;18.45;6.90;;;0.90;99.90;;;;;;5092612;28;20130;-74
2022/03/09 01:21:06;;;;;;;24.60;7.75;;;0.90;99.90;;;;;;5112493;28;20050;-75
2022/03/09 01:23:32;;;;;;;21.80;7.50;;;0.90;99.90;;;;;;5123178;27;20118;-74
2022/03/09 01:25:58;;;;;;;23.23;7.30;;;0.90;99.90;;;;;;5114672;27;20184;-73
2022/03/09 01:28:24;;;;;;;23.30;7.47;;;0.90;99.90;;;;;;5133058;27;20051;-73
2022/03/09 01:30:50;;;;;;;22.80;7.90;;;0.90;99.90;;;;;;5132630;27;20041;-73
2022/03/09 01:33:16;;;;;;;22.65;8.13;;;0.90;99.90;;;;;;5132904;27;20068;-74
2022/03/09 01:35:42;;;;;;;22.23;7.95;;;1.00;99.90;;;;;;5132800;27;20485;-73
2022/03/09 01:38:07;;;;;;;30.05;8.20;;;0.90;99.90;;;;;;5134362;27;20051;-74
2022/03/09 01:40:34;;;;;;;27.90;8.70;;;1.00;99.90;;;;;;5132442;27;20475;-73
2022/03/09 01:43:00;;;;;;;28.73;8.90;;;0.80;99.90;;;;;;5116186;27;20055;-74
2022/03/09 01:45:26;;;;;;;31.05;8.60;;;0.90;99.90;;;;;;5118421;27;20182;-73
2022/03/09 01:47:51;;;;;;;24.90;8.52;;;0.90;99.90;;;;;;5112158;28;20039;-75
2022/03/09 01:50:17;;;;;;;28.17;9.38;;;0.80;99.90;;;;;;5110722;27;20088;-75
2022/03/09 01:52:44;;;;;;;23.25;7.18;;;0.80;99.90;;;;;;5099071;27;20058;-74
2022/03/09 01:55:11;;;;;;;22.63;8.60;;;0.90;99.90;;;;;;5098155;27;20047;-74
2022/03/09 01:57:37;;;;;;;26.75;8.50;;;0.80;99.90;;;;;;5132295;27;20143;-74
2022/03/09 02:00:04;;;;;;;24.33;8.20;;;0.80;99.90;;;;;;5132992;27;20128;-74
2022/03/09 02:02:30;;;;;;;22.75;7.60;;;0.80;99.90;;;;;;5114809;27;20035;-74
2022/03/09 02:04:56;;;;;;;21.35;7.70;;;0.80;99.90;;;;;;5133887;27;20039;-73
2022/03/09 02:09:41;;;;;;;24.08;8.18;;;0.70;99.90;;;;;;5128918;27;20035;-73
2022/03/09 02:10:09;;;;;;;20.48;7.93;;;0.70;99.90;;;;;;5118723;27;20111;-73
2022/03/09 02:12:36;;;;;;;22.10;7.15;;;0.70;99.90;;;;;;5132118;27;20070;-74
2022/03/09 02:15:03;;;;;;;19.98;7.38;;;0.60;99.90;;;;;;5115460;27;20475;-74
2022/03/09 02:17:28;;;;;;;23.83;8.23;;;0.70;99.90;;;;;;5132171;27;20130;-73
2022/03/09 02:19:56;;;;;;;21.48;7.80;;;0.70;99.90;;;;;;5098096;27;20134;-73
2022/03/09 02:22:30;;;;;;;;;;;0.70;99.90;;;;;;5118610;27;20042;-74
2022/03/09 02:24:56;;;;;;;22.00;6.97;;;0.70;99.90;;;;;;5106824;27;20327;-73
2022/03/09 02:27:21;;;;;;;26.33;7.25;;;0.70;99.90;;;;;;5104952;27;20104;-74
2022/03/09 02:29:49;;;;;;;27.80;8.63;;;0.80;99.90;;;;;;5115103;27;20464;-74
2022/03/09 02:32:15;;;;;;;24.65;8.15;;;0.90;99.90;;;;;;5114234;27;20043;-73
2022/03/09 02:34:40;;;;;;;21.02;8.43;;;0.90;99.90;;;;;;5131805;27;20357;-74
2022/03/09 02:37:07;;;;;;;23.08;7.70;;;0.90;99.90;;;;;;5131413;27;20047;-75
2022/03/09 02:39:33;;;;;;;20.30;7.55;;;1.00;99.90;;;;;;5114415;27;20677;-74
2022/03/09 02:41:58;;;;;;;21.65;7.03;;;1.10;99.90;;;;;;5095916;27;20059;-73
2022/03/09 02:44:24;;;;;;;20.75;7.53;;;1.10;99.90;;;;;;5097373;27;20051;-73
2022/03/09 02:46:50;;;;;;;22.05;8.55;;;1.00;99.90;;;;;;5114533;27;20122;-73
2022/03/09 02:49:16;;;;;;;23.02;8.40;;;1.00;99.90;;;;;;5097529;27;20134;-73
2022/03/09 02:51:42;;;;;;;26.25;8.70;;;1.00;99.90;;;;;;5114274;27;20079;-74
2022/03/09 02:54:07;;;;;;;20.88;7.38;;;1.10;99.90;;;;;;5113842;27;20053;-73
2022/03/09 02:56:33;;;;;;;16.35;6.22;;;1.10;99.90;;;;;;5095085;27;20213;-73
2022/03/09 02:58:59;;;;;;;21.23;7.90;;;1.10;99.90;;;;;;5132666;27;20047;-74
2022/03/09 03:01:25;;;;;;;19.23;7.35;;;1.20;99.90;;;;;;5113463;27;20043;-74
2022/03/09 03:03:50;;;;;;;21.67;8.20;;;1.20;99.90;;;;;;5132556;27;20103;-74
2022/03/09 03:06:16;;;;;;;26.05;8.68;;;1.20;99.90;;;;;;5131801;27;20035;-74
2022/03/09 03:08:42;;;;;;;23.23;8.13;;;1.20;99.90;;;;;;5114663;27;20332;-74
2022/03/09 03:11:09;;;;;;;22.67;7.85;;;1.20;99.90;;;;;;5078413;28;20047;-73
2022/03/09 03:13:37;;;;;;;21.25;8.48;;;1.20;99.90;;;;;;5060085;28;20133;-73
2022/03/09 03:16:04;;;;;;;25.45;8.32;;;1.20;99.90;;;;;;5111555;28;20463;-73
2022/03/09 03:18:30;;;;;;;24.92;8.20;;;1.20;99.90;;;;;;5122807;27;20051;-73
2022/03/09 03:20:56;;;;;;;23.17;8.55;;;1.20;99.90;;;;;;5113455;27;20066;-73
2022/03/09 03:23:22;;;;;;;25.42;8.02;;;1.10;99.90;;;;;;5113481;27;20051;-74
2022/03/09 03:25:52;;;;;;;28.75;9.15;;;1.20;99.90;;;;;;5112109;27;20107;-73
2022/03/09 03:28:19;;;;;;;23.27;8.27;;;1.10;99.90;;;;;;5131593;27;20477;-74
2022/03/09 03:30:45;;;;;;;24.13;8.75;;;1.00;99.90;;;;;;5113542;27;20130;-74
2022/03/09 03:33:11;;;;;;;28.95;9.65;;;1.00;99.90;;;;;;5132272;27;20125;-74
2022/03/09 03:35:37;;;;;;;25.48;8.35;;;0.90;99.90;;;;;;5126234;27;20135;-73
2022/03/09 03:38:03;;;;;;;27.67;9.27;;;0.90;99.90;;;;;;5132319;27;20097;-73
2022/03/09 03:40:29;;;;;;;23.30;8.50;;;0.90;99.90;;;;;;5129692;27;20062;-74
2022/03/09 03:42:55;;;;;;;25.40;8.85;;;0.90;99.90;;;;;;5113723;27;20038;-73
2022/03/09 03:45:20;;;;;;;22.90;8.15;;;0.90;99.90;;;;;;5112855;27;20043;-74
2022/03/09 03:47:47;;;;;;;23.45;8.93;;;0.90;99.90;;;;;;5131962;27;20304;-73
2022/03/09 03:50:13;;;;;;;24.45;8.98;;;0.80;99.90;;;;;;5113559;27;20388;-73
2022/03/09 03:52:39;;;;;;;26.33;9.20;;;0.70;99.90;;;;;;5096390;27;20107;-73
2022/03/09 03:55:05;;;;;;;23.60;9.07;;;0.60;99.90;;;;;;5113416;28;20439;-73
2022/03/09 03:57:32;;;;;;;24.20;8.77;;;0.50;99.90;;;;;;5098080;28;20053;-73
2022/03/09 03:59:58;;;;;;;24.90;9.38;;;0.40;99.90;;;;;;5106962;28;20143;-73
2022/03/09 04:02:23;;;;;;;29.30;9.57;;;0.30;99.90;;;;;;5116821;28;20146;-73
2022/03/09 04:04:50;;;;;;;24.95;9.60;;;0.30;99.90;;;;;;5113648;27;20096;-73
2022/03/09 04:07:16;;;;;;;28.33;9.10;;;0.20;99.90;;;;;;5116392;27;20047;-73
2022/03/09 04:09:42;;;;;;;27.05;10.13;;;0.10;99.90;;;;;;5135478;27;20131;-73
2022/03/09 04:12:09;;;;;;;24.65;9.65;;;0.10;99.90;;;;;;5133959;27;20082;-74
2022/03/09 04:14:35;;;;;;;27.45;9.50;;;0.10;99.90;;;;;;5134193;27;20039;-73
2022/03/09 04:17:01;;;;;;;26.38;9.65;;;0.00;99.90;;;;;;5117209;27;20054;-74
2022/03/09 04:19:26;;;;;;;28.92;9.68;;;0.00;99.90;;;;;;5135322;27;20061;-74
2022/03/09 04:21:52;;;;;;;27.55;9.88;;;-0.10;99.90;;;;;;5100289;27;20047;-74
2022/03/09 04:24:18;;;;;;;26.98;9.50;;;-0.10;99.90;;;;;;5126435;27;20161;-74
2022/03/09 04:26:44;;;;;;;27.38;9.68;;;-0.10;99.90;;;;;;5077694;28;20047;-74
2022/03/09 04:29:10;;;;;;;25.88;8.98;;;-0.10;99.90;;;;;;5128961;27;20139;-74
2022/03/09 04:31:36;;;;;;;25.25;9.65;;;-0.20;99.90;;;;;;5133217;27;20118;-73
2022/03/09 04:34:02;;;;;;;28.83;9.98;;;-0.20;99.90;;;;;;5135799;27;20050;-74
2022/03/09 04:36:28;;;;;;;28.98;9.50;;;-0.20;99.90;;;;;;5133202;27;20039;-74
2022/03/09 04:38:54;;;;;;;34.10;10.75;;;-0.20;99.90;;;;;;5135828;27;20054;-73
2022/03/09 04:41:21;;;;;;;27.58;10.38;;;-0.30;99.90;;;;;;5132139;27;20051;-76
2022/03/09 04:43:47;;;;;;;29.33;10.27;;;-0.20;99.90;;;;;;5100554;27;20126;-73
2022/03/09 04:46:12;;;;;;;24.98;9.63;;;-0.40;99.90;;;;;;5082947;27;20534;-73
2022/03/09 04:48:38;;;;;;;30.23;10.05;;;-0.40;99.90;;;;;;5082536;27;20123;-73
2022/03/09 04:51:04;;;;;;;25.48;9.48;;;-0.50;99.90;;;;;;5116632;27;20085;-74
2022/03/09 04:53:31;;;;;;;26.95;10.02;;;-0.40;99.90;;;;;;5134535;27;20499;-74
2022/03/09 04:55:57;;;;;;;28.10;10.05;;;-0.50;99.90;;;;;;5114932;27;20039;-74
2022/03/09 04:58:24;;;;;;;26.90;9.50;;;-0.50;99.90;;;;;;5116689;27;20055;-75
2022/03/09 05:00:51;;;;;;;30.33;9.77;;;-0.50;99.90;;;;;;5114178;28;20044;-75
2022/03/09 05:03:16;;;;;;;29.50;10.52;;;-0.40;99.90;;;;;;5134780;27;20054;-73
2022/03/09 05:05:42;;;;;;;30.70;10.55;;;-0.40;99.90;;;;;;5132909;27;20043;-73
2022/03/09 05:08:11;;;;;;;30.23;10.60;;;-0.50;99.90;;;;;;5135338;27;20043;-73
2022/03/09 05:10:37;;;;;;;27.88;10.25;;;-0.50;99.90;;;;;;5120282;27;20094;-74
2022/03/09 05:13:04;;;;;;;32.17;11.88;;;-0.50;99.90;;;;;;5134983;27;20075;-73
2022/03/09 05:15:30;;;;;;;29.00;10.73;;;-0.60;99.90;;;;;;5098200;27;20046;-74
2022/03/09 05:17:56;;;;;;;24.88;9.15;;;-0.60;99.90;;;;;;5134197;27;20051;-74
2022/03/09 05:20:22;;;;;;;31.23;11.00;;;-0.60;99.90;;;;;;5115886;27;20070;-74
2022/03/09 05:22:49;;;;;;;28.05;10.68;;;-0.60;99.90;;;;;;5132821;27;20073;-75
2022/03/09 05:25:15;;;;;;;34.08;10.73;;;-0.50;99.90;;;;;;5132310;27;20047;-74
2022/03/09 05:27:41;;;;;;;31.10;10.88;;;-0.50;99.90;;;;;;5131521;27;20505;-73
2022/03/09 05:30:09;;;;;;;27.13;9.70;;;-0.40;99.90;;;;;;5134279;27;20084;-74
2022/03/09 05:32:35;;;;;;;31.88;10.13;;;-0.40;99.90;;;;;;5115405;27;20051;-74
2022/03/09 05:35:02;;;;;;;25.53;10.47;;;-0.40;99.90;;;;;;5134492;27;20328;-74
2022/03/09 05:37:28;;;;;;;29.02;10.85;;;-0.50;99.90;;;;;;5118189;27;20062;-74
2022/03/09 05:39:55;;;;;;;42.28;18.05;;;-0.50;99.90;;;;;;5134476;27;20079;-74
2022/03/09 05:42:20;;;;;;;38.28;17.85;;;-0.60;99.90;;;;;;5132234;27;20424;-73
2022/03/09 05:44:46;;;;;;;33.92;14.05;;;-0.60;99.90;;;;;;5133878;27;20130;-75
2022/03/09 05:47:12;;;;;;;41.83;21.80;;;-0.50;99.90;;;;;;5115795;27;20050;-73
2022/03/09 05:49:38;;;;;;;43.00;23.02;;;-0.60;99.90;;;;;;5094790;28;20056;-73
2022/03/09 05:52:04;;;;;;;42.53;20.52;;;-0.70;99.90;;;;;;5113425;28;20040;-74
2022/03/09 05:54:30;;;;;;;40.15;14.38;;;-0.70;99.90;;;;;;5096037;28;20048;-74
2022/03/09 05:56:56;;;;;;;29.63;12.88;;;-0.70;99.90;;;;;;5076586;28;20051;-74
2022/03/09 05:59:22;;;;;;;36.38;13.80;;;-0.60;99.90;;;;;;5130719;27;20083;-73
2022/03/09 06:01:47;;;;;;;32.42;12.15;;;-0.50;99.90;;;;;;5132546;27;20043;-74
2022/03/09 06:04:13;;;;;;;43.22;14.75;;;-0.70;99.90;;;;;;5132871;27;20403;-74
2022/03/09 06:06:39;;;;;;;63.72;31.15;;;-0.70;99.90;;;;;;5114173;27;20502;-73
2022/03/09 06:09:05;;;;;;;39.22;17.50;;;-0.70;99.90;;;;;;5133690;27;20059;-73
2022/03/09 06:11:30;;;;;;;38.67;14.40;;;-0.70;99.90;;;;;;5130822;27;20051;-74
2022/03/09 06:13:56;;;;;;;36.50;14.20;;;-0.60;99.90;;;;;;5132574;27;20150;-74
2022/03/09 06:16:22;;;;;;;35.00;13.10;;;-0.60;99.90;;;;;;5084552;27;20035;-73
2022/03/09 06:18:49;;;;;;;36.28;12.98;;;-0.70;99.90;;;;;;5105878;27;20119;-73
2022/03/09 06:21:15;;;;;;;38.38;12.45;;;-0.50;99.90;;;;;;5113936;27;20063;-73
2022/03/09 06:23:41;;;;;;;34.00;12.13;;;-0.70;99.90;;;;;;5129030;27;20062;-74
2022/03/09 06:26:07;;;;;;;30.73;11.70;;;-0.60;99.90;;;;;;5092717;28;20092;-74
2022/03/09 06:28:33;;;;;;;33.53;12.32;;;-0.60;99.90;;;;;;5093766;28;20065;-73
2022/03/09 06:30:59;;;;;;;35.75;12.50;;;-0.60;99.90;;;;;;5094219;28;20062;-73
2022/03/09 06:33:25;;;;;;;30.83;12.18;;;-0.60;99.90;;;;;;5094682;28;20048;-73
2022/03/09 06:35:51;;;;;;;36.97;12.52;;;-0.50;99.90;;;;;;5110002;27;20031;-74
2022/03/09 06:38:17;;;;;;;35.10;12.43;;;-0.50;99.90;;;;;;5130480;27;20111;-73
2022/03/09 06:40:44;;;;;;;33.03;11.55;;;-0.50;99.90;;;;;;5116245;27;20090;-73
2022/03/09 06:43:10;;;;;;;29.52;11.75;;;-0.20;99.90;;;;;;5115097;27;20050;-74
2022/03/09 06:45:35;;;;;;;34.88;12.10;;;-0.30;99.90;;;;;;5113824;27;20047;-73
2022/03/09 06:48:02;;;;;;;32.15;10.32;;;-0.10;99.90;;;;;;5133220;27;20473;-75
2022/03/09 06:50:28;;;;;;;33.85;11.35;;;0.00;99.90;;;;;;5117059;27;20043;-73
2022/03/09 06:52:54;;;;;;;97.17;28.63;;;0.00;99.90;;;;;;5126287;27;20046;-74
2022/03/09 06:55:20;;;;;;;161.93;46.67;;;0.10;99.90;;;;;;5119771;27;20486;-73
2022/03/09 06:57:47;;;;;;;55.55;17.25;;;0.10;99.90;;;;;;5096989;27;20047;-76
2022/03/09 07:00:14;;;;;;;35.65;12.50;;;0.20;99.90;;;;;;5093816;28;20050;-75
2022/03/09 07:02:42;;;;;;;33.05;12.10;;;0.30;99.90;;;;;;5127961;27;20074;-74
2022/03/09 07:05:09;;;;;;;36.00;12.60;;;0.30;99.90;;;;;;5112070;28;20055;-74
2022/03/09 07:07:36;;;;;;;33.72;11.32;;;0.40;99.90;;;;;;5060425;28;20052;-75
2022/03/09 07:10:02;;;;;;;31.07;11.10;;;0.40;99.90;;;;;;5087551;27;20039;-73
2022/03/09 07:12:28;;;;;;;27.83;10.65;;;0.50;99.90;;;;;;5121142;27;20291;-75
2022/03/09 07:14:54;;;;;;;32.83;11.75;;;0.70;99.90;;;;;;5080127;27;20411;-74
2022/03/09 07:17:19;;;;;;;31.73;10.40;;;0.80;99.90;;;;;;5093554;28;20055;-73
2022/03/09 07:19:46;;;;;;;33.50;11.27;;;0.90;99.90;;;;;;5097841;27;20450;-74
2022/03/09 07:22:12;;;;;;;32.53;11.68;;;0.90;99.90;;;;;;5093657;28;20056;-73
2022/03/09 07:24:38;;;;;;;29.17;10.23;;;1.00;99.90;;;;;;5111287;28;20101;-73
2022/03/09 07:27:04;;;;;;;33.20;11.52;;;1.20;99.90;;;;;;5108703;28;20054;-73
2022/03/09 07:29:30;;;;;;;30.42;10.07;;;1.30;99.90;;;;;;5111969;28;20039;-75
2022/03/09 07:31:56;;;;;;;29.85;9.98;;;1.40;99.90;;;;;;5092620;28;20113;-73
2022/03/09 07:34:22;;;;;;;31.92;10.50;;;1.60;99.90;;;;;;5127139;27;20149;-74
2022/03/09 07:36:49;;;;;;;32.25;11.68;;;1.70;99.90;;;;;;5112676;27;20089;-74
2022/03/09 07:39:16;;;;;;;27.42;10.73;;;1.80;99.90;;;;;;5132384;27;20447;-74
2022/03/09 07:41:42;;;;;;;30.70;10.63;;;1.90;99.90;;;;;;5128261;27;20078;-74
2022/03/09 07:44:08;;;;;;;28.80;9.88;;;2.00;99.90;;;;;;5130320;27;20082;-73
2022/03/09 07:46:35;;;;;;;31.85;11.20;;;2.10;99.90;;;;;;5131287;27;20526;-73
2022/03/09 07:49:01;;;;;;;32.90;10.20;;;2.20;99.90;;;;;;5099539;28;20092;-74
2022/03/09 07:51:27;;;;;;;24.10;8.25;;;2.30;99.90;;;;;;5109552;28;20044;-73
2022/03/09 07:53:53;;;;;;;33.90;9.52;;;2.40;99.90;;;;;;5123551;27;20047;-74
2022/03/09 07:56:18;;;;;;;32.72;10.27;;;2.50;99.90;;;;;;5111488;28;20394;-73
2022/03/09 07:58:44;;;;;;;34.55;10.07;;;2.50;99.90;;;;;;5112795;27;20504;-74
2022/03/09 08:01:10;;;;;;;29.77;9.30;;;2.60;99.90;;;;;;5112993;28;20054;-74
2022/03/09 08:03:36;;;;;;;32.70;10.68;;;2.70;99.90;;;;;;5096610;28;20055;-74
2022/03/09 08:06:01;;;;;;;28.58;9.82;;;2.80;99.90;;;;;;5128651;28;20070;-73
2022/03/09 08:08:28;;;;;;;28.95;9.75;;;2.90;99.90;;;;;;5128243;27;20115;-72
2022/03/09 08:10:54;;;;;;;29.73;9.70;;;3.00;99.90;;;;;;5108517;28;20043;-74
2022/03/09 08:13:20;;;;;;;35.72;10.38;;;3.00;99.90;;;;;;5115156;28;20035;-73
2022/03/09 08:15:46;;;;;;;25.58;9.35;;;3.10;99.90;;;;;;5107743;28;20482;-72
2022/03/09 08:18:12;;;;;;;25.75;9.52;;;3.20;99.90;;;;;;5110182;28;20078;-74
2022/03/09 08:20:37;;;;;;;27.98;10.30;;;3.30;99.90;;;;;;5106859;28;20059;-73
2022/03/09 08:23:03;;;;;;;27.52;10.25;;;3.40;99.90;;;;;;5109366;28;20112;-74
2022/03/09 08:25:29;;;;;;;28.15;9.80;;;3.50;99.90;;;;;;5091492;28;20479;-75
2022/03/09 08:27:55;;;;;;;30.75;9.70;;;3.50;99.90;;;;;;5110051;28;20052;-75
2022/03/09 08:30:21;;;;;;;27.40;8.90;;;3.70;99.90;;;;;;5110560;28;20044;-74
2022/03/09 08:32:46;;;;;;;30.30;9.40;;;3.80;99.90;;;;;;5110975;28;20108;-73
2022/03/09 08:35:12;;;;;;;30.25;10.07;;;3.90;99.90;;;;;;5109691;28;20046;-74
2022/03/09 08:37:38;;;;;;;23.48;8.48;;;4.00;99.90;;;;;;5111156;28;20050;-73
2022/03/09 08:40:04;;;;;;;24.95;8.48;;;4.20;99.90;;;;;;5092510;28;20509;-75
2022/03/09 08:42:30;;;;;;;27.50;9.77;;;4.30;99.90;;;;;;5109064;28;20051;-74
2022/03/09 08:44:56;;;;;;;27.50;9.68;;;4.50;99.90;;;;;;5109253;28;20072;-73
2022/03/09 08:47:21;;;;;;;26.27;9.38;;;4.60;99.90;;;;;;5109329;28;20047;-73
2022/03/09 08:49:47;;;;;;;26.30;9.77;;;4.70;99.90;;;;;;5109575;28;20043;-73
2022/03/09 08:52:14;;;;;;;31.25;10.68;;;4.70;99.90;;;;;;5093133;28;20043;-73
2022/03/09 08:54:43;;;;;;;31.83;10.55;;;4.80;99.90;;;;;;5113771;28;20047;-73
2022/03/09 08:57:09;;;;;;;26.10;9.07;;;4.90;99.90;;;;;;5111814;28;20055;-74
2022/03/09 08:59:35;;;;;;;28.23;10.63;;;5.00;99.90;;;;;;5093107;28;20044;-73
2022/03/09 09:02:01;;;;;;;30.10;9.98;;;5.20;95.20;;;;;;5075198;28;20060;-73
2022/03/09 09:04:26;;;;;;;32.05;11.10;;;5.30;97.60;;;;;;5076048;28;20101;-72
2022/03/09 09:06:52;;;;;;;24.58;8.00;;;5.30;97.50;;;;;;5075018;28;20055;-74
2022/03/09 09:09:20;;;;;;;25.60;8.63;;;5.60;92.60;;;;;;5079499;28;20052;-74
2022/03/09 09:11:45;;;;;;;;;;;5.60;96.00;;;;;;5111296;28;20047;-75
2022/03/09 09:14:11;;;;;;;27.08;8.48;;;5.70;96.20;;;;;;5096385;28;19984;-73
2022/03/09 09:16:38;;;;;;;20.70;6.85;;;5.90;93.30;;;;;;5112559;28;20050;-74
2022/03/09 09:19:04;;;;;;;28.67;9.13;;;6.00;93.80;;;;;;5112940;28;20166;-73
2022/03/09 09:21:30;;;;;;;24.30;9.52;;;6.00;94.00;;;;;;5131826;27;20142;-73
2022/03/09 09:23:56;;;;;;;30.10;9.02;;;6.00;94.60;;;;;;5116357;27;20055;-74
2022/03/09 09:26:22;;;;;;;26.27;8.95;;;6.10;93.50;;;;;;5097882;27;20047;-73
2022/03/09 09:28:48;;;;;;;27.75;9.35;;;6.20;92.60;;;;;;5116174;27;20134;-74
2022/03/09 09:31:13;;;;;;;29.08;9.57;;;6.30;90.20;;;;;;5098780;27;20047;-73
2022/03/09 09:33:39;;;;;;;28.55;10.15;;;6.40;89.00;;;;;;5099429;27;20423;-74
2022/03/09 09:36:05;;;;;;;42.42;7.95;;;6.40;89.40;;;;;;5098526;27;20062;-73
2022/03/09 09:38:31;;;;;;;30.77;9.20;;;6.50;90.00;;;;;;5116525;27;20077;-74
2022/03/09 09:40:57;;;;;;;28.35;10.00;;;6.70;88.20;;;;;;5096915;27;20111;-73
2022/03/09 09:43:24;;;;;;;27.63;9.65;;;6.60;80.80;;;;;;5116589;27;20051;-74
2022/03/09 09:45:51;;;;;;;25.08;8.25;;;6.70;86.80;;;;;;5115428;27;20068;-74
2022/03/09 09:48:20;;;;;;;;;;;6.80;86.80;;;;;;5108975;28;20047;-74
2022/03/09 09:50:46;;;;;;;25.20;8.20;;;6.80;87.60;;;;;;5113416;28;19919;-73
2022/03/09 09:53:14;;;;;;;27.75;9.88;;;7.00;85.20;;;;;;5095353;28;20440;-73
2022/03/09 09:55:42;;;;;;;26.33;9.20;;;7.00;83.70;;;;;;5111492;28;20541;-74
2022/03/09 09:58:09;;;;;;;25.13;9.18;;;7.00;86.70;;;;;;5094884;28;20058;-73
2022/03/09 10:00:35;;;;;;;23.48;8.88;;;7.10;86.40;;;;;;5094955;28;20047;-73
2022/03/09 10:03:02;;;;;;;25.02;9.10;;;7.10;88.40;;;;;;5094735;28;20043;-73
2022/03/09 10:05:27;;;;;;;26.63;9.90;;;7.20;81.30;;;;;;5112418;28;20050;-73
2022/03/09 10:08:06;;;;;;;30.05;11.13;;;7.30;81.40;;;;;;5095177;28;20130;-74
2022/03/09 10:10:44;;;;;;;24.42;9.98;;;7.30;85.40;;;;;;5093889;28;20063;-72
2022/03/09 10:13:12;;;;;;;34.22;12.57;;;7.30;84.10;;;;;;5095306;28;20085;-72
2022/03/09 10:15:38;;;;;;;25.35;10.38;;;7.40;83.80;;;;;;5112938;28;20048;-73
2022/03/09 10:18:13;;;;;;;28.42;11.05;;;7.40;86.90;;;;;;5112991;28;20048;-72
2022/03/09 10:20:39;;;;;;;27.65;11.05;;;7.50;88.10;;;;;;5112615;28;20414;-73
2022/03/09 10:23:05;;;;;;;35.80;12.13;;;7.50;78.00;;;;;;5094805;28;20156;-73
2022/03/09 10:25:31;;;;;;;29.45;11.13;;;7.60;77.90;;;;;;5093006;28;20073;-73
2022/03/09 10:27:57;;;;;;;23.90;7.95;;;7.70;76.20;;;;;;5077430;28;20044;-74
2022/03/09 10:30:36;;;;;;;25.87;10.57;;;7.80;84.00;;;;;;5112712;28;20086;-72
2022/03/09 10:33:08;;;;;;;28.23;10.23;;;7.80;73.00;;;;;;5077313;28;20043;-73
2022/03/09 10:35:34;;;;;;;32.22;9.75;;;7.90;74.80;;;;;;5077232;28;20131;-73
2022/03/09 10:38:03;;;;;;;26.95;10.63;;;7.90;79.50;;;;;;5094357;28;20077;-73
2022/03/09 10:40:31;;;;;;;31.17;11.05;;;8.10;75.30;;;;;;5110994;28;20047;-73
2022/03/09 10:43:11;;;;;;;26.92;10.85;;;8.00;81.90;;;;;;5112428;28;20477;-74
2022/03/09 10:45:53;;;;;;;27.45;10.00;;;8.00;73.10;;;;;;5112448;28;20070;-74
2022/03/09 10:48:19;;;;;;;30.70;11.15;;;8.10;77.30;;;;;;5079693;28;20078;-74
2022/03/09 10:50:51;;;;;;;31.23;10.32;;;8.20;71.90;;;;;;5123699;27;20074;-73
2022/03/09 10:53:17;;;;;;;29.85;9.80;;;8.20;78.90;;;;;;5128376;27;20115;-73
2022/03/09 10:55:42;;;;;;;27.67;10.15;;;8.30;81.80;;;;;;5111986;27;20256;-72
2022/03/09 10:58:20;;;;;;;31.75;10.70;;;8.30;82.30;;;;;;5115502;27;20062;-73
2022/03/09 11:00:55;;;;;;;29.05;10.82;;;8.50;71.00;;;;;;5113866;27;20192;-73
2022/03/09 11:03:23;;;;;;;26.60;10.68;;;8.50;73.10;;;;;;5122572;27;20047;-72
2022/03/09 11:06:03;;;;;;;27.30;11.27;;;8.70;70.50;;;;;;5132161;27;20043;-73
2022/03/09 11:08:29;;;;;;;32.35;11.45;;;8.70;71.80;;;;;;5111032;27;20051;-73
2022/03/09 11:10:58;;;;;;;29.23;11.82;;;8.80;69.70;;;;;;5113659;27;20116;-74
2022/03/09 11:13:25;;;;;;;30.65;11.48;;;8.80;70.30;;;;;;5093612;28;20047;-74
2022/03/09 11:15:53;;;;;;;;;;;8.80;72.00;;;;;;5076473;28;20070;-74
2022/03/09 11:18:21;;;;;;;23.92;8.68;;;8.90;74.10;;;;;;5111509;28;20488;-73
2022/03/09 11:20:48;;;;;;;30.42;11.02;;;9.00;76.30;;;;;;5076507;28;20130;-74
2022/03/09 11:23:15;;;;;;;25.02;10.93;;;9.10;78.40;;;;;;5104300;27;20062;-73
2022/03/09 11:26:05;;;;;;;31.13;11.23;;;9.10;69.90;;;;;;5130305;27;20051;-74
2022/03/09 11:28:39;;;;;;;25.88;10.40;;;9.10;72.80;;;;;;5132313;27;20047;-74
2022/03/09 11:31:11;;;;;;;27.60;9.73;;;9.20;74.90;;;;;;5131309;27;20043;-73
2022/03/09 11:33:45;;;;;;;32.95;11.57;;;9.20;77.70;;;;;;5118309;27;20421;-75
2022/03/09 11:36:23;;;;;;;26.23;9.35;;;9.30;69.10;;;;;;5131020;27;20050;-74
2022/03/09 11:38:52;;;;;;;25.98;10.52;;;9.40;75.20;;;;;;5114242;27;20188;-75
2022/03/09 11:41:23;;;;;;;28.95;9.75;;;9.50;73.70;;;;;;5098568;28;20134;-73
2022/03/09 11:43:53;;;;;;;31.35;12.38;;;9.50;70.80;;;;;;5111669;28;20132;-75
2022/03/09 11:46:20;;;;;;;27.50;10.10;;;9.50;71.80;;;;;;5092334;28;20066;-74
2022/03/09 11:48:56;;;;;;;23.20;8.10;;;9.60;72.40;;;;;;5103739;27;20096;-74
2022/03/09 11:51:23;;;;;;;28.88;9.80;;;9.70;70.30;;;;;;5113555;27;20045;-74
2022/03/09 11:53:52;;;;;;;26.27;10.20;;;9.70;68.90;;;;;;5093496;28;20054;-74
2022/03/09 11:56:24;;;;;;;27.45;9.75;;;9.80;66.60;;;;;;5108648;28;20070;-74
2022/03/09 11:59:11;;;;;;;26.13;9.98;;;9.80;68.70;;;;;;5076830;28;20043;-75
2022/03/09 12:01:52;;;;;;;;;;;9.90;66.80;;;;;;5094507;28;20543;-74
2022/03/09 12:04:45;;;;;;;24.73;8.57;;;9.90;71.50;;;;;;5096484;28;19950;-74
2022/03/09 12:07:12;;;;;;;33.03;11.05;;;10.00;68.50;;;;;;5107305;28;20047;-73
2022/03/09 12:10:02;;;;;;;25.65;9.43;;;10.00;70.30;;;;;;5132086;28;20127;-73
2022/03/09 12:12:28;;;;;;;;;;;10.20;68.60;;;;;;5111237;28;20046;-75
2022/03/09 12:15:06;;;;;;;34.10;13.60;;;10.20;70.40;;;;;;5113842;28;19927;-74
2022/03/09 12:17:51;;;;;;;28.70;11.00;;;10.30;61.90;;;;;;5126570;28;20091;-74
2022/03/09 12:20:27;;;;;;;33.70;11.73;;;10.30;67.60;;;;;;5097048;28;20125;-75
2022/03/09 12:22:56;;;;;;;29.75;10.95;;;10.40;65.30;;;;;;5114557;28;20105;-74
2022/03/09 12:25:46;;;;;;;31.70;10.00;;;10.40;66.40;;;;;;5119172;28;20088;-75
2022/03/09 12:28:28;;;;;;;25.17;9.70;;;10.50;66.60;;;;;;5135712;27;20047;-74
2022/03/09 12:30:58;;;;;;;24.95;10.32;;;10.50;67.20;;;;;;5130126;27;20040;-74
2022/03/09 12:33:26;;;;;;;25.00;9.35;;;10.50;66.50;;;;;;5114661;28;20518;-74
2022/03/09 12:35:53;;;;;;;26.20;10.35;;;10.50;66.00;;;;;;5116681;27;20356;-73
2022/03/09 12:38:19;;;;;;;25.27;11.23;;;10.50;63.00;;;;;;5116697;27;20054;-74
2022/03/09 12:40:45;;;;;;;24.90;10.17;;;10.50;60.50;;;;;;5115600;28;20044;-74
2022/03/09 12:43:15;;;;;;;37.05;14.13;;;10.60;64.80;;;;;;5117673;28;20096;-76